sensor_id;sensor_type;location;lat;lon;timestamp;temperature;humidity
2435;DHT22;1228;51.022;6.764;2023-02-28T00:00:29;0.50;99.90
2435;DHT22;1228;51.022;6.764;2023-02-28T00:02:55;0.50;99.90
2435;DHT22;1228;51.022;6.764;2023-02-28T00:05:22;0.50;99.90
2435;DHT22;1228;51.022;6.764;2023-02-28T00:07:50;0.50;99.90
2435;DHT22;1228;51.022;6.764;2023-02-28T00:10:18;0.50;99.90
2435;DHT22;1228;51.022;6.764;2023-02-28T00:12:47;0.40;99.90
2435;DHT22;1228;51.022;6.764;2023-02-28T00:15:13;0.50;99.90
2435;DHT22;1228;51.022;6.764;2023-02-28T00:17:38;0.40;99.90
2435;DHT22;1228;51.022;6.764;2023-02-28T00:20:05;0.40;99.90
2435;DHT22;1228;51.022;6.764;2023-02-28T00:22:36;0.30;99.90
2435;DHT22;1228;51.022;6.764;2023-02-28T00:25:03;0.30;99.90
2435;DHT22;1228;51.022;6.764;2023-02-28T00:27:29;0.30;99.90
2435;DHT22;1228;51.022;6.764;2023-02-28T00:29:55;0.30;99.90
2435;DHT22;1228;51.022;6.764;2023-02-28T00:32:21;0.20;99.90
2435;DHT22;1228;51.022;6.764;2023-02-28T00:34:47;0.20;99.90
2435;DHT22;1228;51.022;6.764;2023-02-28T00:37:12;0.20;99.90
2435;DHT22;1228;51.022;6.764;2023-02-28T00:39:39;0.20;99.90
2435;DHT22;1228;51.022;6.764;2023-02-28T00:42:05;0.20;99.90
2435;DHT22;1228;51.022;6.764;2023-02-28T00:44:31;0.20;99.90
2435;DHT22;1228;51.022;6.764;2023-02-28T00:46:57;0.10;99.90
2435;DHT22;1228;51.022;6.764;2023-02-28T00:49:23;0.10;99.90
2435;DHT22;1228;51.022;6.764;2023-02-28T00:51:49;0.10;99.90
2435;DHT22;1228;51.022;6.764;2023-02-28T00:54:16;0.00;99.90
2435;DHT22;1228;51.022;6.764;2023-02-28T00:56:41;0.10;99.90
2435;DHT22;1228;51.022;6.764;2023-02-28T00:59:07;0.10;99.90
2435;DHT22;1228;51.022;6.764;2023-02-28T01:01:33;0.10;99.90
2435;DHT22;1228;51.022;6.764;2023-02-28T01:03:58;0.10;99.90
2435;DHT22;1228;51.022;6.764;2023-02-28T01:06:24;0.00;99.90
2435;DHT22;1228;51.022;6.764;2023-02-28T01:08:50;0.00;99.90
2435;DHT22;1228;51.022;6.764;2023-02-28T01:11:17;0.00;99.90
2435;DHT22;1228;51.022;6.764;2023-02-28T01:13:43;0.00;99.90
2435;DHT22;1228;51.022;6.764;2023-02-28T01:16:09;-0.10;99.90
2435;DHT22;1228;51.022;6.764;2023-02-28T01:18:36;-0.10;99.90
2435;DHT22;1228;51.022;6.764;2023-02-28T01:21:10;-0.10;99.90
2435;DHT22;1228;51.022;6.764;2023-02-28T01:23:36;-0.10;99.90
2435;DHT22;1228;51.022;6.764;2023-02-28T01:26:17;-0.10;99.90
2435;DHT22;1228;51.022;6.764;2023-02-28T01:28:43;-0.10;99.90
2435;DHT22;1228;51.022;6.764;2023-02-28T01:31:09;-0.10;99.90
2435;DHT22;1228;51.022;6.764;2023-02-28T01:33:35;-0.10;99.90
2435;DHT22;1228;51.022;6.764;2023-02-28T01:36:03;-0.10;99.90
2435;DHT22;1228;51.022;6.764;2023-02-28T01:38:29;-0.10;99.90
2435;DHT22;1228;51.022;6.764;2023-02-28T01:40:55;-0.10;99.90
2435;DHT22;1228;51.022;6.764;2023-02-28T01:43:30;-0.20;99.90
2435;DHT22;1228;51.022;6.764;2023-02-28T01:45:57;-0.20;99.90
2435;DHT22;1228;51.022;6.764;2023-02-28T01:48:26;-0.20;99.90
2435;DHT22;1228;51.022;6.764;2023-02-28T01:50:55;-0.20;99.90
2435;DHT22;1228;51.022;6.764;2023-02-28T01:53:31;-0.30;99.90
2435;DHT22;1228;51.022;6.764;2023-02-28T01:55:57;-0.30;99.90
2435;DHT22;1228;51.022;6.764;2023-02-28T01:58:23;-0.30;99.90
2435;DHT22;1228;51.022;6.764;2023-02-28T02:00:49;-0.30;99.90
2435;DHT22;1228;51.022;6.764;2023-02-28T02:03:18;-0.40;99.90
2435;DHT22;1228;51.022;6.764;2023-02-28T02:05:45;-0.40;99.90
2435;DHT22;1228;51.022;6.764;2023-02-28T02:08:17;-0.40;99.90
2435;DHT22;1228;51.022;6.764;2023-02-28T02:10:46;-0.40;99.90
2435;DHT22;1228;51.022;6.764;2023-02-28T02:30:22;-0.50;99.90
2435;DHT22;1228;51.022;6.764;2023-02-28T02:36:03;-0.50;99.90
2435;DHT22;1228;51.022;6.764;2023-02-28T02:41:54;-0.50;99.90
2435;DHT22;1228;51.022;6.764;2023-02-28T02:44:26;-0.50;99.90
2435;DHT22;1228;51.022;6.764;2023-02-28T02:47:02;-0.60;99.90
2435;DHT22;1228;51.022;6.764;2023-02-28T02:49:31;-0.60;99.90
2435;DHT22;1228;51.022;6.764;2023-02-28T02:52:02;-0.60;99.90
2435;DHT22;1228;51.022;6.764;2023-02-28T02:54:31;-0.60;99.90
2435;DHT22;1228;51.022;6.764;2023-02-28T02:57:03;-0.60;99.90
2435;DHT22;1228;51.022;6.764;2023-02-28T02:59:30;-0.60;99.90
2435;DHT22;1228;51.022;6.764;2023-02-28T03:02:00;-0.50;99.90
2435;DHT22;1228;51.022;6.764;2023-02-28T03:04:31;-0.50;99.90
2435;DHT22;1228;51.022;6.764;2023-02-28T03:06:58;-0.50;99.90
2435;DHT22;1228;51.022;6.764;2023-02-28T03:09:25;-0.40;99.90
2435;DHT22;1228;51.022;6.764;2023-02-28T03:11:52;-0.30;99.90
2435;DHT22;1228;51.022;6.764;2023-02-28T03:14:28;-0.30;99.90
2435;DHT22;1228;51.022;6.764;2023-02-28T03:19:55;-0.40;99.90
2435;DHT22;1228;51.022;6.764;2023-02-28T03:22:45;-0.50;99.90
2435;DHT22;1228;51.022;6.764;2023-02-28T03:25:41;-0.60;99.90
2435;DHT22;1228;51.022;6.764;2023-02-28T03:30:54;-0.70;99.90
2435;DHT22;1228;51.022;6.764;2023-02-28T03:33:49;-0.80;99.90
2435;DHT22;1228;51.022;6.764;2023-02-28T03:36:26;-0.90;99.90
2435;DHT22;1228;51.022;6.764;2023-02-28T03:38:58;-1.10;99.90
2435;DHT22;1228;51.022;6.764;2023-02-28T03:41:40;-1.20;99.90
2435;DHT22;1228;51.022;6.764;2023-02-28T03:44:14;-1.30;99.90
2435;DHT22;1228;51.022;6.764;2023-02-28T03:46:55;-1.40;99.90
2435;DHT22;1228;51.022;6.764;2023-02-28T03:49:26;-1.50;99.90
2435;DHT22;1228;51.022;6.764;2023-02-28T03:51:54;-1.60;99.90
2435;DHT22;1228;51.022;6.764;2023-02-28T03:54:44;-1.70;99.90
2435;DHT22;1228;51.022;6.764;2023-02-28T03:57:33;-1.80;99.90
2435;DHT22;1228;51.022;6.764;2023-02-28T04:02:32;-2.00;99.90
2435;DHT22;1228;51.022;6.764;2023-02-28T04:05:00;-2.00;99.90
2435;DHT22;1228;51.022;6.764;2023-02-28T04:07:29;-2.00;99.90
2435;DHT22;1228;51.022;6.764;2023-02-28T04:09:55;-2.10;99.90
2435;DHT22;1228;51.022;6.764;2023-02-28T04:12:20;-2.10;99.90
2435;DHT22;1228;51.022;6.764;2023-02-28T04:14:48;-2.10;99.90
2435;DHT22;1228;51.022;6.764;2023-02-28T04:17:14;-2.10;99.90
2435;DHT22;1228;51.022;6.764;2023-02-28T04:19:40;-2.10;99.90
2435;DHT22;1228;51.022;6.764;2023-02-28T04:22:06;-2.10;99.90
2435;DHT22;1228;51.022;6.764;2023-02-28T04:24:33;-2.20;99.90
2435;DHT22;1228;51.022;6.764;2023-02-28T04:26:58;-2.20;99.90
2435;DHT22;1228;51.022;6.764;2023-02-28T04:29:29;-2.20;99.90
2435;DHT22;1228;51.022;6.764;2023-02-28T04:31:57;-2.20;99.90
2435;DHT22;1228;51.022;6.764;2023-02-28T04:34:23;-2.20;99.90
2435;DHT22;1228;51.022;6.764;2023-02-28T04:36:50;-2.20;99.90
2435;DHT22;1228;51.022;6.764;2023-02-28T04:39:19;-2.20;99.90
2435;DHT22;1228;51.022;6.764;2023-02-28T04:41:45;-2.20;99.90
2435;DHT22;1228;51.022;6.764;2023-02-28T04:44:11;-2.20;99.90
2435;DHT22;1228;51.022;6.764;2023-02-28T04:46:37;-2.20;99.90
2435;DHT22;1228;51.022;6.764;2023-02-28T04:49:03;-2.20;99.90
2435;DHT22;1228;51.022;6.764;2023-02-28T04:51:29;-2.10;99.90
2435;DHT22;1228;51.022;6.764;2023-02-28T04:53:55;-2.00;99.90
2435;DHT22;1228;51.022;6.764;2023-02-28T04:56:21;-1.80;99.90
2435;DHT22;1228;51.022;6.764;2023-02-28T04:58:47;-1.60;99.90
2435;DHT22;1228;51.022;6.764;2023-02-28T05:01:24;-1.50;99.90
2435;DHT22;1228;51.022;6.764;2023-02-28T05:03:52;-1.40;99.90
2435;DHT22;1228;51.022;6.764;2023-02-28T05:06:19;-1.40;99.90
2435;DHT22;1228;51.022;6.764;2023-02-28T05:08:45;-1.40;99.90
2435;DHT22;1228;51.022;6.764;2023-02-28T05:11:20;-1.30;99.90
2435;DHT22;1228;51.022;6.764;2023-02-28T05:13:46;-1.30;99.90
2435;DHT22;1228;51.022;6.764;2023-02-28T05:16:12;-1.30;99.90
2435;DHT22;1228;51.022;6.764;2023-02-28T05:18:38;-1.30;99.90
2435;DHT22;1228;51.022;6.764;2023-02-28T05:21:04;-1.30;99.90
2435;DHT22;1228;51.022;6.764;2023-02-28T05:23:30;-1.40;99.90
2435;DHT22;1228;51.022;6.764;2023-02-28T05:25:55;-1.40;99.90
2435;DHT22;1228;51.022;6.764;2023-02-28T05:28:21;-1.40;99.90
2435;DHT22;1228;51.022;6.764;2023-02-28T05:30:47;-1.50;99.90
2435;DHT22;1228;51.022;6.764;2023-02-28T05:33:13;-1.50;99.90
2435;DHT22;1228;51.022;6.764;2023-02-28T05:35:40;-1.60;99.90
2435;DHT22;1228;51.022;6.764;2023-02-28T05:38:06;-1.60;99.90
2435;DHT22;1228;51.022;6.764;2023-02-28T05:40:32;-1.60;99.90
2435;DHT22;1228;51.022;6.764;2023-02-28T05:42:57;-1.60;99.90
2435;DHT22;1228;51.022;6.764;2023-02-28T05:45:23;-1.60;99.90
2435;DHT22;1228;51.022;6.764;2023-02-28T05:47:49;-1.60;99.90
2435;DHT22;1228;51.022;6.764;2023-02-28T05:50:18;-1.70;99.90
2435;DHT22;1228;51.022;6.764;2023-02-28T05:52:43;-1.70;99.90
2435;DHT22;1228;51.022;6.764;2023-02-28T05:55:09;-1.70;99.90
2435;DHT22;1228;51.022;6.764;2023-02-28T05:57:35;-1.70;99.90
2435;DHT22;1228;51.022;6.764;2023-02-28T06:00:00;-1.70;99.90
2435;DHT22;1228;51.022;6.764;2023-02-28T06:02:26;-1.70;99.90
2435;DHT22;1228;51.022;6.764;2023-02-28T06:04:52;-1.70;99.90
2435;DHT22;1228;51.022;6.764;2023-02-28T06:07:17;-1.80;99.90
2435;DHT22;1228;51.022;6.764;2023-02-28T06:09:43;-1.80;99.90
2435;DHT22;1228;51.022;6.764;2023-02-28T06:12:10;-1.80;99.90
2435;DHT22;1228;51.022;6.764;2023-02-28T06:14:36;-1.90;99.90
2435;DHT22;1228;51.022;6.764;2023-02-28T06:17:02;-1.90;99.90
2435;DHT22;1228;51.022;6.764;2023-02-28T06:19:28;-2.00;99.90
2435;DHT22;1228;51.022;6.764;2023-02-28T06:21:56;-2.00;99.90
2435;DHT22;1228;51.022;6.764;2023-02-28T06:24:23;-2.00;99.90
2435;DHT22;1228;51.022;6.764;2023-02-28T06:26:49;-2.00;99.90
2435;DHT22;1228;51.022;6.764;2023-02-28T06:29:15;-1.90;99.90
2435;DHT22;1228;51.022;6.764;2023-02-28T06:31:43;-1.90;99.90
2435;DHT22;1228;51.022;6.764;2023-02-28T06:34:09;-1.90;99.90
2435;DHT22;1228;51.022;6.764;2023-02-28T06:36:40;-1.80;99.90
2435;DHT22;1228;51.022;6.764;2023-02-28T06:39:07;-1.80;99.90
2435;DHT22;1228;51.022;6.764;2023-02-28T06:41:33;-1.80;99.90
2435;DHT22;1228;51.022;6.764;2023-02-28T06:44:04;-1.80;99.90
2435;DHT22;1228;51.022;6.764;2023-02-28T06:46:32;-1.70;99.90
2435;DHT22;1228;51.022;6.764;2023-02-28T06:48:57;-1.80;99.90
2435;DHT22;1228;51.022;6.764;2023-02-28T06:51:23;-1.70;99.90
2435;DHT22;1228;51.022;6.764;2023-02-28T06:53:50;-1.70;99.90
2435;DHT22;1228;51.022;6.764;2023-02-28T06:56:16;-1.60;99.90
2435;DHT22;1228;51.022;6.764;2023-02-28T06:58:45;-1.60;99.90
2435;DHT22;1228;51.022;6.764;2023-02-28T07:01:11;-1.50;99.90
2435;DHT22;1228;51.022;6.764;2023-02-28T07:03:38;-1.40;99.90
2435;DHT22;1228;51.022;6.764;2023-02-28T07:06:05;-1.30;99.90
2435;DHT22;1228;51.022;6.764;2023-02-28T07:08:31;-1.20;99.90
2435;DHT22;1228;51.022;6.764;2023-02-28T07:10:57;-1.10;99.90
2435;DHT22;1228;51.022;6.764;2023-02-28T07:13:24;-1.00;99.90
2435;DHT22;1228;51.022;6.764;2023-02-28T07:15:57;-0.80;99.90
2435;DHT22;1228;51.022;6.764;2023-02-28T07:18:23;-0.70;99.90
2435;DHT22;1228;51.022;6.764;2023-02-28T07:20:49;-0.60;99.90
2435;DHT22;1228;51.022;6.764;2023-02-28T07:23:15;-0.50;99.90
2435;DHT22;1228;51.022;6.764;2023-02-28T07:25:41;-0.30;99.90
2435;DHT22;1228;51.022;6.764;2023-02-28T07:28:06;-0.10;99.90
2435;DHT22;1228;51.022;6.764;2023-02-28T07:30:32;0.30;99.90
2435;DHT22;1228;51.022;6.764;2023-02-28T07:32:58;0.70;99.90
2435;DHT22;1228;51.022;6.764;2023-02-28T07:35:23;1.10;99.90
2435;DHT22;1228;51.022;6.764;2023-02-28T07:37:49;1.30;99.90
2435;DHT22;1228;51.022;6.764;2023-02-28T07:40:15;1.50;99.90
2435;DHT22;1228;51.022;6.764;2023-02-28T07:42:43;1.70;99.90
2435;DHT22;1228;51.022;6.764;2023-02-28T07:45:10;1.90;99.90
2435;DHT22;1228;51.022;6.764;2023-02-28T07:47:40;2.10;99.90
2435;DHT22;1228;51.022;6.764;2023-02-28T07:50:08;2.20;99.90
2435;DHT22;1228;51.022;6.764;2023-02-28T07:52:34;2.40;99.90
2435;DHT22;1228;51.022;6.764;2023-02-28T07:55:01;2.50;99.90
2435;DHT22;1228;51.022;6.764;2023-02-28T07:57:26;2.60;99.90
2435;DHT22;1228;51.022;6.764;2023-02-28T07:59:52;2.80;99.90
2435;DHT22;1228;51.022;6.764;2023-02-28T08:02:18;2.80;99.90
2435;DHT22;1228;51.022;6.764;2023-02-28T08:04:45;2.90;99.30
2435;DHT22;1228;51.022;6.764;2023-02-28T08:07:12;3.00;99.10
2435;DHT22;1228;51.022;6.764;2023-02-28T08:09:39;3.20;97.40
2435;DHT22;1228;51.022;6.764;2023-02-28T08:12:05;3.20;95.30
2435;DHT22;1228;51.022;6.764;2023-02-28T08:14:30;3.40;94.50
2435;DHT22;1228;51.022;6.764;2023-02-28T08:16:56;3.50;93.40
2435;DHT22;1228;51.022;6.764;2023-02-28T08:19:22;3.60;92.80
2435;DHT22;1228;51.022;6.764;2023-02-28T08:21:47;3.80;91.30
2435;DHT22;1228;51.022;6.764;2023-02-28T08:24:13;4.00;88.20
2435;DHT22;1228;51.022;6.764;2023-02-28T08:26:38;4.10;87.50
2435;DHT22;1228;51.022;6.764;2023-02-28T08:29:04;4.20;84.90
2435;DHT22;1228;51.022;6.764;2023-02-28T08:31:29;4.40;83.40
2435;DHT22;1228;51.022;6.764;2023-02-28T08:33:55;4.50;77.90
2435;DHT22;1228;51.022;6.764;2023-02-28T08:36:25;4.60;80.30
2435;DHT22;1228;51.022;6.764;2023-02-28T08:38:51;4.70;77.50
2435;DHT22;1228;51.022;6.764;2023-02-28T08:41:17;4.70;75.20
2435;DHT22;1228;51.022;6.764;2023-02-28T08:43:42;4.80;73.20
2435;DHT22;1228;51.022;6.764;2023-02-28T08:46:11;4.80;73.00
2435;DHT22;1228;51.022;6.764;2023-02-28T08:48:37;4.80;70.40
2435;DHT22;1228;51.022;6.764;2023-02-28T08:51:14;5.00;71.70
2435;DHT22;1228;51.022;6.764;2023-02-28T08:53:46;5.40;71.30
2435;DHT22;1228;51.022;6.764;2023-02-28T08:56:15;5.60;70.00
2435;DHT22;1228;51.022;6.764;2023-02-28T08:58:42;5.70;67.40
2435;DHT22;1228;51.022;6.764;2023-02-28T09:01:13;5.80;63.20
2435;DHT22;1228;51.022;6.764;2023-02-28T09:03:40;5.90;62.60
2435;DHT22;1228;51.022;6.764;2023-02-28T09:06:09;5.80;58.80
2435;DHT22;1228;51.022;6.764;2023-02-28T09:08:36;5.90;58.40
2435;DHT22;1228;51.022;6.764;2023-02-28T09:11:02;5.90;54.90
2435;DHT22;1228;51.022;6.764;2023-02-28T09:13:29;6.00;55.50
2435;DHT22;1228;51.022;6.764;2023-02-28T09:15:58;6.10;55.10
2435;DHT22;1228;51.022;6.764;2023-02-28T09:18:24;6.20;55.30
2435;DHT22;1228;51.022;6.764;2023-02-28T09:20:50;6.40;52.90
2435;DHT22;1228;51.022;6.764;2023-02-28T09:23:16;6.50;53.50
2435;DHT22;1228;51.022;6.764;2023-02-28T09:25:46;6.70;53.30
2435;DHT22;1228;51.022;6.764;2023-02-28T09:28:12;6.80;53.30
2435;DHT22;1228;51.022;6.764;2023-02-28T09:30:41;6.80;53.00
2435;DHT22;1228;51.022;6.764;2023-02-28T09:33:07;7.00;52.60
2435;DHT22;1228;51.022;6.764;2023-02-28T09:35:32;6.90;52.00
2435;DHT22;1228;51.022;6.764;2023-02-28T09:37:58;7.10;49.50
2435;DHT22;1228;51.022;6.764;2023-02-28T09:40:25;6.80;50.50
2435;DHT22;1228;51.022;6.764;2023-02-28T09:42:53;6.80;51.40
2435;DHT22;1228;51.022;6.764;2023-02-28T09:47:52;6.70;50.00
2435;DHT22;1228;51.022;6.764;2023-02-28T09:50:40;6.60;51.10
2435;DHT22;1228;51.022;6.764;2023-02-28T09:53:28;6.70;51.20
2435;DHT22;1228;51.022;6.764;2023-02-28T09:56:11;6.50;51.20
2435;DHT22;1228;51.022;6.764;2023-02-28T09:58:55;6.40;50.90
2435;DHT22;1228;51.022;6.764;2023-02-28T10:06:50;6.80;50.90
2435;DHT22;1228;51.022;6.764;2023-02-28T10:11:49;6.90;51.10
2435;DHT22;1228;51.022;6.764;2023-02-28T10:19:32;7.00;50.60
2435;DHT22;1228;51.022;6.764;2023-02-28T10:22:12;7.00;49.80
2435;DHT22;1228;51.022;6.764;2023-02-28T10:24:41;7.10;51.10
2435;DHT22;1228;51.022;6.764;2023-02-28T10:27:25;7.30;51.70
2435;DHT22;1228;51.022;6.764;2023-02-28T10:29:55;7.10;48.90
2435;DHT22;1228;51.022;6.764;2023-02-28T10:32:25;6.90;49.10
2435;DHT22;1228;51.022;6.764;2023-02-28T10:35:01;6.70;49.50
2435;DHT22;1228;51.022;6.764;2023-02-28T10:37:31;6.80;50.40
2435;DHT22;1228;51.022;6.764;2023-02-28T10:39:57;7.00;49.80
2435;DHT22;1228;51.022;6.764;2023-02-28T10:42:26;6.90;51.30
2435;DHT22;1228;51.022;6.764;2023-02-28T10:47:33;7.10;49.70
2435;DHT22;1228;51.022;6.764;2023-02-28T10:49:59;7.30;51.30
2435;DHT22;1228;51.022;6.764;2023-02-28T10:52:39;7.50;50.80
2435;DHT22;1228;51.022;6.764;2023-02-28T10:55:21;7.50;49.20
2435;DHT22;1228;51.022;6.764;2023-02-28T10:57:48;7.40;49.70
2435;DHT22;1228;51.022;6.764;2023-02-28T11:00:25;7.60;49.80
2435;DHT22;1228;51.022;6.764;2023-02-28T11:02:56;7.80;50.40
2435;DHT22;1228;51.022;6.764;2023-02-28T11:10:31;8.10;51.00
2435;DHT22;1228;51.022;6.764;2023-02-28T11:13:00;8.20;48.90
2435;DHT22;1228;51.022;6.764;2023-02-28T11:15:32;8.30;49.30
2435;DHT22;1228;51.022;6.764;2023-02-28T11:20:54;8.40;46.40
2435;DHT22;1228;51.022;6.764;2023-02-28T11:23:25;8.30;45.70
2435;DHT22;1228;51.022;6.764;2023-02-28T11:25:54;8.10;48.00
2435;DHT22;1228;51.022;6.764;2023-02-28T11:28:31;8.00;48.30
2435;DHT22;1228;51.022;6.764;2023-02-28T11:33:52;8.20;47.80
2435;DHT22;1228;51.022;6.764;2023-02-28T11:36:27;8.80;47.60
2435;DHT22;1228;51.022;6.764;2023-02-28T11:38:54;9.00;46.00
2435;DHT22;1228;51.022;6.764;2023-02-28T11:46:41;9.30;46.60
2435;DHT22;1228;51.022;6.764;2023-02-28T11:55:38;8.20;46.50
2435;DHT22;1228;51.022;6.764;2023-02-28T11:58:18;8.30;46.60
2435;DHT22;1228;51.022;6.764;2023-02-28T12:04:04;7.10;48.00
2435;DHT22;1228;51.022;6.764;2023-02-28T12:06:45;6.80;50.20
2435;DHT22;1228;51.022;6.764;2023-02-28T12:12:07;7.40;50.40
2435;DHT22;1228;51.022;6.764;2023-02-28T12:15:05;7.30;49.90
2435;DHT22;1228;51.022;6.764;2023-02-28T12:20:49;6.70;50.00
2435;DHT22;1228;51.022;6.764;2023-02-28T12:28:15;8.40;50.70
2435;DHT22;1228;51.022;6.764;2023-02-28T12:31:09;8.70;48.60
2435;DHT22;1228;51.022;6.764;2023-02-28T12:33:40;9.20;48.20
2435;DHT22;1228;51.022;6.764;2023-02-28T12:36:13;9.30;48.00
2435;DHT22;1228;51.022;6.764;2023-02-28T12:38:52;8.90;44.60
2435;DHT22;1228;51.022;6.764;2023-02-28T12:44:12;9.00;48.80
2435;DHT22;1228;51.022;6.764;2023-02-28T12:46:47;9.20;46.00
2435;DHT22;1228;51.022;6.764;2023-02-28T12:49:25;9.50;47.00
2435;DHT22;1228;51.022;6.764;2023-02-28T12:51:53;9.60;46.20
2435;DHT22;1228;51.022;6.764;2023-02-28T12:54:47;9.60;47.60
2435;DHT22;1228;51.022;6.764;2023-02-28T12:57:51;9.40;49.00
2435;DHT22;1228;51.022;6.764;2023-02-28T13:00:19;9.50;46.30
2435;DHT22;1228;51.022;6.764;2023-02-28T13:03:16;9.50;48.10
2435;DHT22;1228;51.022;6.764;2023-02-28T13:06:13;9.30;47.60
2435;DHT22;1228;51.022;6.764;2023-02-28T13:09:11;9.10;48.40
2435;DHT22;1228;51.022;6.764;2023-02-28T13:11:50;8.70;45.60
2435;DHT22;1228;51.022;6.764;2023-02-28T13:16:59;8.70;48.30
2435;DHT22;1228;51.022;6.764;2023-02-28T13:19:32;8.60;46.50
2435;DHT22;1228;51.022;6.764;2023-02-28T13:21:58;8.70;49.10
2435;DHT22;1228;51.022;6.764;2023-02-28T13:24:42;8.60;48.20
2435;DHT22;1228;51.022;6.764;2023-02-28T13:29:41;8.50;47.00
2435;DHT22;1228;51.022;6.764;2023-02-28T13:39:53;8.40;46.90
2435;DHT22;1228;51.022;6.764;2023-02-28T13:45:21;8.80;45.00
2435;DHT22;1228;51.022;6.764;2023-02-28T14:06:37;10.30;43.60
2435;DHT22;1228;51.022;6.764;2023-02-28T14:11:49;10.10;43.70
2435;DHT22;1228;51.022;6.764;2023-02-28T14:17:01;9.40;43.60
2435;DHT22;1228;51.022;6.764;2023-02-28T14:19:30;9.30;45.10
2435;DHT22;1228;51.022;6.764;2023-02-28T14:22:36;9.30;44.00
2435;DHT22;1228;51.022;6.764;2023-02-28T14:28:02;9.10;44.30
2435;DHT22;1228;51.022;6.764;2023-02-28T14:30:51;9.10;45.20
2435;DHT22;1228;51.022;6.764;2023-02-28T14:36:25;9.20;46.00
2435;DHT22;1228;51.022;6.764;2023-02-28T14:38:56;9.00;44.90
2435;DHT22;1228;51.022;6.764;2023-02-28T14:41:34;9.10;43.90
2435;DHT22;1228;51.022;6.764;2023-02-28T14:44:12;9.10;43.40
2435;DHT22;1228;51.022;6.764;2023-02-28T14:46:40;8.90;43.30
2435;DHT22;1228;51.022;6.764;2023-02-28T14:49:12;9.00;45.60
2435;DHT22;1228;51.022;6.764;2023-02-28T14:51:38;9.10;44.80
2435;DHT22;1228;51.022;6.764;2023-02-28T14:54:04;9.10;44.80
2435;DHT22;1228;51.022;6.764;2023-02-28T14:56:49;8.90;43.80
2435;DHT22;1228;51.022;6.764;2023-02-28T14:59:35;8.80;44.40
2435;DHT22;1228;51.022;6.764;2023-02-28T15:04:55;8.80;45.90
2435;DHT22;1228;51.022;6.764;2023-02-28T15:07:22;9.10;47.10
2435;DHT22;1228;51.022;6.764;2023-02-28T15:12:37;9.20;44.20
2435;DHT22;1228;51.022;6.764;2023-02-28T15:15:05;9.10;44.90
2435;DHT22;1228;51.022;6.764;2023-02-28T15:17:33;9.00;45.10
2435;DHT22;1228;51.022;6.764;2023-02-28T15:19:59;8.80;44.40
2435;DHT22;1228;51.022;6.764;2023-02-28T15:22:34;8.80;45.60
2435;DHT22;1228;51.022;6.764;2023-02-28T15:25:02;8.90;45.20
2435;DHT22;1228;51.022;6.764;2023-02-28T15:27:32;8.90;44.50
2435;DHT22;1228;51.022;6.764;2023-02-28T15:30:00;8.90;45.70
2435;DHT22;1228;51.022;6.764;2023-02-28T15:32:32;9.00;43.80
2435;DHT22;1228;51.022;6.764;2023-02-28T15:35:16;8.80;44.80
2435;DHT22;1228;51.022;6.764;2023-02-28T15:37:48;8.50;44.40
2435;DHT22;1228;51.022;6.764;2023-02-28T15:40:27;8.40;45.20
2435;DHT22;1228;51.022;6.764;2023-02-28T15:50:51;8.20;46.80
2435;DHT22;1228;51.022;6.764;2023-02-28T15:53:20;8.10;45.10
2435;DHT22;1228;51.022;6.764;2023-02-28T15:55:54;8.00;45.30
2435;DHT22;1228;51.022;6.764;2023-02-28T15:58:21;7.90;44.90
2435;DHT22;1228;51.022;6.764;2023-02-28T16:01:01;7.70;46.40
2435;DHT22;1228;51.022;6.764;2023-02-28T16:03:35;7.40;46.90
2435;DHT22;1228;51.022;6.764;2023-02-28T16:06:33;7.20;48.10
2435;DHT22;1228;51.022;6.764;2023-02-28T16:09:00;6.80;47.30
2435;DHT22;1228;51.022;6.764;2023-02-28T16:11:26;6.70;49.90
2435;DHT22;1228;51.022;6.764;2023-02-28T16:13:52;6.60;48.60
2435;DHT22;1228;51.022;6.764;2023-02-28T16:16:21;6.50;50.10
2435;DHT22;1228;51.022;6.764;2023-02-28T16:18:47;6.40;49.20
2435;DHT22;1228;51.022;6.764;2023-02-28T16:21:12;6.40;48.80
2435;DHT22;1228;51.022;6.764;2023-02-28T16:23:38;6.40;49.70
2435;DHT22;1228;51.022;6.764;2023-02-28T16:26:04;6.40;49.90
2435;DHT22;1228;51.022;6.764;2023-02-28T16:28:33;6.60;51.40
2435;DHT22;1228;51.022;6.764;2023-02-28T16:30:59;6.60;49.30
2435;DHT22;1228;51.022;6.764;2023-02-28T16:33:28;6.40;49.60
2435;DHT22;1228;51.022;6.764;2023-02-28T16:35:53;6.20;50.10
2435;DHT22;1228;51.022;6.764;2023-02-28T16:38:19;6.00;49.30
2435;DHT22;1228;51.022;6.764;2023-02-28T16:40:45;5.90;50.30
2435;DHT22;1228;51.022;6.764;2023-02-28T16:43:18;5.70;51.10
2435;DHT22;1228;51.022;6.764;2023-02-28T16:45:45;5.70;51.90
2435;DHT22;1228;51.022;6.764;2023-02-28T16:48:15;5.50;53.10
2435;DHT22;1228;51.022;6.764;2023-02-28T16:50:42;5.40;52.70
2435;DHT22;1228;51.022;6.764;2023-02-28T16:53:09;5.30;54.10
2435;DHT22;1228;51.022;6.764;2023-02-28T16:55:35;5.20;58.70
2435;DHT22;1228;51.022;6.764;2023-02-28T16:58:02;5.10;59.70
2435;DHT22;1228;51.022;6.764;2023-02-28T17:00:29;5.00;62.90
2435;DHT22;1228;51.022;6.764;2023-02-28T17:02:56;4.80;64.80
2435;DHT22;1228;51.022;6.764;2023-02-28T17:05:22;4.70;67.60
2435;DHT22;1228;51.022;6.764;2023-02-28T17:07:48;4.60;72.00
2435;DHT22;1228;51.022;6.764;2023-02-28T17:10:32;4.50;72.70
2435;DHT22;1228;51.022;6.764;2023-02-28T17:12:58;4.40;75.20
2435;DHT22;1228;51.022;6.764;2023-02-28T17:15:24;4.20;76.90
2435;DHT22;1228;51.022;6.764;2023-02-28T17:17:49;4.10;79.20
2435;DHT22;1228;51.022;6.764;2023-02-28T17:20:17;4.00;80.80
2435;DHT22;1228;51.022;6.764;2023-02-28T17:22:43;3.90;82.20
2435;DHT22;1228;51.022;6.764;2023-02-28T17:25:09;3.80;84.20
2435;DHT22;1228;51.022;6.764;2023-02-28T17:27:35;3.80;85.70
2435;DHT22;1228;51.022;6.764;2023-02-28T17:30:02;3.70;87.30
2435;DHT22;1228;51.022;6.764;2023-02-28T17:32:28;3.70;89.20
2435;DHT22;1228;51.022;6.764;2023-02-28T17:34:54;3.60;90.70
2435;DHT22;1228;51.022;6.764;2023-02-28T17:37:19;3.50;91.20
2435;DHT22;1228;51.022;6.764;2023-02-28T17:39:45;3.50;92.10
2435;DHT22;1228;51.022;6.764;2023-02-28T17:42:10;3.40;92.40
2435;DHT22;1228;51.022;6.764;2023-02-28T17:44:36;3.40;92.30
2435;DHT22;1228;51.022;6.764;2023-02-28T17:47:03;3.40;93.00
2435;DHT22;1228;51.022;6.764;2023-02-28T17:49:28;3.30;93.40
2435;DHT22;1228;51.022;6.764;2023-02-28T17:51:54;3.30;93.00
2435;DHT22;1228;51.022;6.764;2023-02-28T17:54:19;3.30;93.30
2435;DHT22;1228;51.022;6.764;2023-02-28T17:56:45;3.30;93.00
2435;DHT22;1228;51.022;6.764;2023-02-28T17:59:12;3.30;92.60
2435;DHT22;1228;51.022;6.764;2023-02-28T18:01:38;3.30;93.20
2435;DHT22;1228;51.022;6.764;2023-02-28T18:04:04;3.40;93.10
2435;DHT22;1228;51.022;6.764;2023-02-28T18:06:40;3.40;93.30
2435;DHT22;1228;51.022;6.764;2023-02-28T18:09:21;3.40;92.80
2435;DHT22;1228;51.022;6.764;2023-02-28T18:11:49;3.40;93.00
2435;DHT22;1228;51.022;6.764;2023-02-28T18:14:15;3.40;92.60
2435;DHT22;1228;51.022;6.764;2023-02-28T18:16:41;3.50;92.50
2435;DHT22;1228;51.022;6.764;2023-02-28T18:19:07;3.40;92.70
2435;DHT22;1228;51.022;6.764;2023-02-28T18:21:39;3.40;92.90
2435;DHT22;1228;51.022;6.764;2023-02-28T18:24:05;3.40;93.10
2435;DHT22;1228;51.022;6.764;2023-02-28T18:26:31;3.40;93.40
2435;DHT22;1228;51.022;6.764;2023-02-28T18:28:56;3.40;93.40
2435;DHT22;1228;51.022;6.764;2023-02-28T18:31:22;3.40;93.60
2435;DHT22;1228;51.022;6.764;2023-02-28T18:33:49;3.30;94.00
2435;DHT22;1228;51.022;6.764;2023-02-28T18:36:16;3.30;94.40
2435;DHT22;1228;51.022;6.764;2023-02-28T18:38:41;3.20;94.80
2435;DHT22;1228;51.022;6.764;2023-02-28T18:41:08;3.20;95.30
2435;DHT22;1228;51.022;6.764;2023-02-28T18:43:35;3.10;95.80
2435;DHT22;1228;51.022;6.764;2023-02-28T18:46:07;3.00;96.10
2435;DHT22;1228;51.022;6.764;2023-02-28T18:48:34;2.90;96.80
2435;DHT22;1228;51.022;6.764;2023-02-28T18:51:06;2.80;97.40
2435;DHT22;1228;51.022;6.764;2023-02-28T18:53:34;2.80;97.80
2435;DHT22;1228;51.022;6.764;2023-02-28T18:56:00;2.80;98.30